Time;durP1;ratioP1;P1;durP2;ratioP2;P2;SDS_P1;SDS_P2;PMS_P1;PMS_P2;Temp;Humidity;BMP_temperature;BMP_pressure;BME280_temperature;BME280_humidity;BME280_pressure;Samples;Min_cycle;Max_cycle;Signal;HPM_P1;HPM_P2
2022/12/24 00:01:39;;;;;;;25.85;10.05;;;8.40;79.10;;;;;;2344634;57;21058;-48
2022/12/24 00:04:06;;;;;;;26.62;9.68;;;8.40;79.20;;;;;;2343726;57;21518;-47
2022/12/24 00:06:34;;;;;;;24.87;9.77;;;8.30;79.10;;;;;;2344559;57;21640;-50
2022/12/24 00:09:02;;;;;;;27.65;11.63;;;8.30;79.10;;;;;;2343925;57;21029;-47
2022/12/24 00:11:29;;;;;;;20.40;9.98;;;8.30;79.30;;;;;;2344541;57;21561;-48
2022/12/24 00:13:56;;;;;;;29.98;11.70;;;8.30;79.30;;;;;;2344595;57;21034;-47
2022/12/24 00:16:23;;;;;;;23.92;10.80;;;8.30;79.30;;;;;;2343697;57;21097;-47
2022/12/24 00:18:50;;;;;;;32.20;11.38;;;8.30;79.40;;;;;;2344920;57;21050;-47
2022/12/24 00:21:17;;;;;;;32.65;11.65;;;8.30;79.50;;;;;;2344658;57;21046;-46
2022/12/24 00:23:45;;;;;;;34.30;12.45;;;8.30;79.50;;;;;;2344443;57;21125;-48
2022/12/24 00:26:13;;;;;;;30.48;11.73;;;8.30;79.50;;;;;;2343442;57;21054;-46
2022/12/24 00:28:40;;;;;;;33.35;11.40;;;8.20;79.50;;;;;;2344449;57;21089;-46
2022/12/24 00:31:10;;;;;;;29.52;11.50;;;8.20;79.60;;;;;;2344349;57;21042;-46
2022/12/24 00:33:37;;;;;;;32.08;11.73;;;8.20;79.70;;;;;;2343098;57;21134;-45
2022/12/24 00:36:06;;;;;;;45.75;14.00;;;8.20;79.80;;;;;;2344154;57;21121;-45
2022/12/24 00:38:33;;;;;;;42.38;12.75;;;8.20;79.80;;;;;;2345408;57;21820;-46
2022/12/24 00:41:02;;;;;;;30.92;12.55;;;8.20;79.80;;;;;;2345715;57;21161;-45
2022/12/24 00:43:30;;;;;;;37.42;13.25;;;8.20;79.90;;;;;;2344611;57;21049;-45
2022/12/24 00:45:57;;;;;;;34.92;12.68;;;8.20;80.00;;;;;;2345594;57;21084;-45
2022/12/24 00:48:24;;;;;;;33.38;12.30;;;8.20;80.10;;;;;;2345075;57;21018;-45
2022/12/24 00:50:51;;;;;;;31.50;11.90;;;8.20;80.10;;;;;;2345621;57;21037;-46
2022/12/24 00:53:19;;;;;;;36.03;12.27;;;8.10;80.10;;;;;;2343929;57;21053;-47
2022/12/24 00:55:46;;;;;;;35.70;12.05;;;8.10;80.10;;;;;;2344321;57;21549;-48
2022/12/24 00:58:13;;;;;;;32.55;11.38;;;8.10;80.10;;;;;;2344393;57;21050;-45
2022/12/24 01:00:40;;;;;;;34.22;12.07;;;8.10;80.20;;;;;;2344762;57;21058;-47
2022/12/24 01:03:07;;;;;;;29.73;11.18;;;8.10;80.20;;;;;;2344355;57;21046;-46
2022/12/24 01:05:34;;;;;;;32.75;10.73;;;8.10;80.20;;;;;;2343364;57;21098;-46
2022/12/24 01:08:01;;;;;;;25.95;11.20;;;8.10;80.20;;;;;;2344103;57;21573;-47
2022/12/24 01:10:28;;;;;;;30.15;12.23;;;8.10;80.20;;;;;;2345305;57;21037;-47
2022/12/24 01:12:56;;;;;;;30.37;10.75;;;8.10;80.20;;;;;;2343831;57;21050;-46
2022/12/24 01:15:23;;;;;;;37.33;11.93;;;8.10;80.20;;;;;;2345111;57;21472;-47
2022/12/24 01:17:50;;;;;;;31.27;10.60;;;8.10;80.20;;;;;;2343776;57;21054;-46
2022/12/24 01:20:18;;;;;;;28.92;11.57;;;8.10;80.10;;;;;;2344585;57;21585;-47
2022/12/24 01:22:47;;;;;;;28.30;11.98;;;8.10;80.20;;;;;;2344214;57;21512;-47
2022/12/24 01:25:15;;;;;;;34.22;12.10;;;8.10;80.20;;;;;;2343712;57;21026;-49
2022/12/24 01:27:42;;;;;;;28.25;10.63;;;8.00;80.10;;;;;;2344574;57;21118;-45
2022/12/24 01:32:49;;;;;;;26.73;10.65;;;8.00;80.20;;;;;;2351007;57;22099;-49
2022/12/24 01:35:16;;;;;;;33.65;11.30;;;8.00;80.10;;;;;;2346920;57;21054;-45
2022/12/24 01:37:44;;;;;;;26.37;10.73;;;8.00;80.20;;;;;;2347240;57;21108;-45
2022/12/24 01:45:49;;;;;;;38.75;12.32;;;8.00;80.20;;;;;;2593735;53;20953;-46
2022/12/24 01:48:27;;;;;;;36.33;12.07;;;8.00;80.00;;;;;;2346150;57;21034;-46
2022/12/24 01:50:59;;;;;;;27.65;11.30;;;8.00;80.10;;;;;;2347298;57;21046;-48
2022/12/24 01:53:26;;;;;;;29.77;11.40;;;8.00;80.10;;;;;;2346719;57;22533;-46
2022/12/24 01:55:54;;;;;;;34.38;11.88;;;8.00;80.10;;;;;;2347140;57;21530;-49
2022/12/24 01:58:24;;;;;;;31.85;12.63;;;7.90;80.10;;;;;;2346911;57;21683;-47
2022/12/24 02:00:51;;;;;;;29.65;12.20;;;7.90;80.20;;;;;;2347645;57;21514;-47
2022/12/24 02:03:19;;;;;;;30.73;13.90;;;7.90;80.20;;;;;;2347137;57;21065;-49
2022/12/24 02:05:49;;;;;;;27.83;10.98;;;7.90;80.20;;;;;;2347580;57;21569;-50
2022/12/24 02:08:18;;;;;;;27.58;10.85;;;7.90;80.30;;;;;;2346171;57;21604;-47
2022/12/24 02:10:46;;;;;;;35.63;11.43;;;7.90;80.30;;;;;;2347134;57;21679;-46
2022/12/24 02:13:15;;;;;;;28.90;12.25;;;7.90;80.30;;;;;;2346195;57;21617;-49
2022/12/24 02:16:03;;;;;;;29.75;11.38;;;7.80;80.20;;;;;;2347215;57;21045;-48
2022/12/24 02:18:38;;;;;;;35.33;12.00;;;7.90;80.30;;;;;;2347326;57;21511;-46
2022/12/24 02:24:36;;;;;;;21.67;9.57;;;7.90;80.50;;;;;;2376935;56;22109;-47
2022/12/24 02:30:13;;;;;;;21.05;9.80;;;7.90;80.40;;;;;;2355488;57;22001;-49
2022/12/24 02:32:48;;;;;;;22.17;10.05;;;7.90;80.30;;;;;;2350119;56;21125;-47
2022/12/24 02:35:21;;;;;;;22.40;9.80;;;7.80;80.40;;;;;;2374608;56;21051;-48
2022/12/24 02:37:51;;;;;;;25.95;10.02;;;7.90;80.50;;;;;;2374632;56;21638;-47
2022/12/24 02:40:24;;;;;;;23.12;9.65;;;7.90;80.60;;;;;;2374787;56;21054;-50
2022/12/24 02:42:57;;;;;;;28.80;10.93;;;7.90;80.50;;;;;;2374307;56;21297;-49
2022/12/24 02:45:29;;;;;;;23.25;9.73;;;7.90;80.50;;;;;;2373577;56;21031;-48
2022/12/24 02:47:56;;;;;;;26.50;10.63;;;7.90;80.50;;;;;;2374503;56;21558;-47
2022/12/24 02:50:24;;;;;;;25.40;10.27;;;7.90;80.50;;;;;;2373602;56;21665;-48
2022/12/24 02:52:52;;;;;;;21.52;9.95;;;7.90;80.50;;;;;;2374854;56;22209;-47
2022/12/24 02:55:23;;;;;;;20.88;9.50;;;7.90;80.40;;;;;;2375265;56;21031;-46
2022/12/24 02:58:16;;;;;;;20.27;10.02;;;7.90;80.50;;;;;;2374780;56;21613;-47
2022/12/24 03:00:54;;;;;;;27.17;10.90;;;7.90;80.50;;;;;;2374713;56;21090;-45
2022/12/24 03:03:35;;;;;;;21.70;9.32;;;7.90;80.40;;;;;;2374622;56;21630;-46
2022/12/24 03:06:11;;;;;;;23.02;10.90;;;7.90;80.50;;;;;;2374375;56;21602;-46
2022/12/24 03:08:48;;;;;;;23.60;11.35;;;8.00;80.60;;;;;;2373960;56;21531;-47
2022/12/24 03:11:15;;;;;;;21.77;9.77;;;8.00;80.60;;;;;;2373434;56;21106;-49
2022/12/24 03:13:43;;;;;;;25.92;10.68;;;8.00;80.50;;;;;;2373971;56;21126;-45
2022/12/24 03:16:14;;;;;;;26.52;11.12;;;8.00;80.60;;;;;;2374864;56;21293;-48
2022/12/24 03:18:46;;;;;;;25.58;10.45;;;8.00;80.60;;;;;;2374864;56;21165;-49
2022/12/24 03:21:19;;;;;;;24.98;10.43;;;8.00;80.60;;;;;;2375564;56;21019;-47
2022/12/24 03:23:47;;;;;;;33.25;11.68;;;8.00;80.60;;;;;;2374727;56;21070;-47
2022/12/24 03:26:17;;;;;;;28.48;10.55;;;8.00;80.60;;;;;;2374208;56;21146;-45
2022/12/24 03:28:45;;;;;;;23.77;10.20;;;8.00;80.60;;;;;;2374876;56;21054;-47
2022/12/24 03:31:13;;;;;;;24.48;9.55;;;8.00;80.60;;;;;;2374901;56;21706;-49
2022/12/24 03:33:40;;;;;;;25.08;10.02;;;8.00;80.60;;;;;;2374411;56;21594;-45
2022/12/24 03:36:10;;;;;;;27.37;10.73;;;8.00;80.60;;;;;;2374684;56;21515;-47
2022/12/24 03:38:37;;;;;;;17.73;9.32;;;8.00;80.70;;;;;;2374360;56;21031;-49
2022/12/24 03:43:42;;;;;;;22.08;9.63;;;8.00;80.70;;;;;;2341883;57;22108;-46
2022/12/24 03:46:09;;;;;;;19.55;9.68;;;8.10;80.80;;;;;;2348119;57;21168;-49
2022/12/24 03:48:36;;;;;;;22.30;9.88;;;8.00;80.70;;;;;;2347668;57;21101;-49
2022/12/24 03:51:04;;;;;;;21.20;9.20;;;8.10;80.70;;;;;;2347274;57;21046;-47
2022/12/24 03:53:31;;;;;;;23.12;9.82;;;8.10;80.70;;;;;;2346303;57;21045;-49
2022/12/24 03:55:58;;;;;;;20.17;9.73;;;8.10;80.80;;;;;;2346967;57;21133;-46
2022/12/24 03:58:26;;;;;;;25.70;10.43;;;8.10;80.70;;;;;;2346903;57;21046;-49
2022/12/24 04:00:53;;;;;;;19.40;9.02;;;8.10;80.70;;;;;;2346886;57;21101;-47
2022/12/24 04:03:21;;;;;;;21.25;8.20;;;8.10;80.70;;;;;;2347143;57;21045;-48
2022/12/24 04:05:58;;;;;;;19.15;9.07;;;8.10;80.70;;;;;;2347313;57;21113;-50
2022/12/24 04:08:25;;;;;;;18.58;7.72;;;8.10;80.70;;;;;;2346725;57;21530;-49
2022/12/24 04:10:52;;;;;;;24.20;8.98;;;8.10;80.70;;;;;;2346236;57;21033;-44
2022/12/24 04:13:19;;;;;;;17.15;8.18;;;8.10;80.70;;;;;;2346792;57;21053;-49
2022/12/24 04:15:57;;;;;;;21.65;9.30;;;8.10;80.70;;;;;;2346837;57;21058;-47
2022/12/24 04:18:24;;;;;;;19.27;8.65;;;8.10;80.70;;;;;;2347083;57;22146;-51
2022/12/24 04:20:51;;;;;;;21.15;8.77;;;8.10;80.60;;;;;;2347190;57;21038;-49
2022/12/24 04:23:19;;;;;;;17.62;8.90;;;8.10;80.60;;;;;;2593422;52;21320;-50
2022/12/24 04:25:46;;;;;;;16.55;8.15;;;8.10;80.60;;;;;;2346660;57;21593;-48
2022/12/24 04:28:14;;;;;;;19.02;9.18;;;8.10;80.70;;;;;;2346297;57;21793;-46
2022/12/24 04:30:41;;;;;;;21.77;8.63;;;8.10;81.40;;;;;;2346652;57;21584;-45
2022/12/24 04:33:09;;;;;;;21.65;8.02;;;8.10;80.70;;;;;;2347668;57;21022;-48
2022/12/24 04:35:40;;;;;;;17.73;8.02;;;8.20;80.80;;;;;;2347830;57;21537;-48
2022/12/24 04:38:07;;;;;;;19.58;8.15;;;8.10;80.70;;;;;;2347187;57;22166;-49
2022/12/24 04:40:35;;;;;;;19.17;7.62;;;8.10;80.70;;;;;;2346911;57;21088;-47
2022/12/24 04:43:03;;;;;;;17.90;8.23;;;8.10;80.70;;;;;;2346958;57;21553;-46
2022/12/24 04:45:31;;;;;;;17.33;8.15;;;8.20;80.90;;;;;;2346050;57;21113;-48
2022/12/24 04:47:58;;;;;;;15.55;8.75;;;8.10;80.70;;;;;;2346321;57;21600;-45
2022/12/24 04:50:26;;;;;;;18.75;8.25;;;8.10;80.70;;;;;;2346696;57;21046;-48
2022/12/24 04:52:53;;;;;;;13.77;6.65;;;8.20;81.50;;;;;;2346918;57;22112;-47
2022/12/24 04:55:20;;;;;;;15.98;7.78;;;8.20;80.70;;;;;;2345813;57;21125;-48
2022/12/24 04:57:47;;;;;;;15.85;7.93;;;8.20;80.70;;;;;;2593226;53;21047;-47
2022/12/24 05:00:15;;;;;;;17.75;8.20;;;8.20;80.70;;;;;;2345116;57;21718;-50
2022/12/24 05:02:42;;;;;;;16.73;7.30;;;8.20;80.60;;;;;;2347030;57;21069;-48
2022/12/24 05:05:10;;;;;;;18.12;8.35;;;8.20;80.60;;;;;;2346837;57;21561;-47
2022/12/24 05:07:37;;;;;;;16.42;8.13;;;8.20;80.50;;;;;;2346588;57;21046;-47
2022/12/24 05:10:07;;;;;;;15.38;7.53;;;8.10;80.50;;;;;;2593282;53;21054;-48
2022/12/24 05:12:34;;;;;;;17.83;8.25;;;8.20;80.50;;;;;;2344171;57;21117;-47
2022/12/24 05:15:03;;;;;;;15.93;7.05;;;8.10;80.50;;;;;;2345147;57;21065;-47
2022/12/24 05:17:30;;;;;;;18.35;8.77;;;8.10;81.30;;;;;;2345227;57;21536;-49
2022/12/24 05:19:57;;;;;;;15.05;6.90;;;8.10;80.50;;;;;;2346103;57;21058;-50
2022/12/24 05:27:55;;;;;;;15.02;7.22;;;8.10;80.60;;;;;;2345809;57;20998;-49
2022/12/24 05:30:22;;;;;;;16.17;6.68;;;8.10;80.60;;;;;;2346193;57;21116;-51
2022/12/24 05:32:50;;;;;;;14.82;7.28;;;8.10;80.70;;;;;;2346173;57;21046;-49
2022/12/24 05:35:17;;;;;;;14.70;7.28;;;8.10;80.90;;;;;;2346163;57;21344;-47
2022/12/24 05:37:44;;;;;;;15.02;6.80;;;8.10;80.60;;;;;;2591649;53;21577;-47
2022/12/24 05:40:12;;;;;;;18.42;7.55;;;8.10;80.50;;;;;;2345317;57;21062;-47
2022/12/24 05:42:39;;;;;;;14.30;7.55;;;8.10;80.60;;;;;;2345540;57;21152;-47
2022/12/24 05:45:09;;;;;;;15.90;8.40;;;8.10;80.50;;;;;;2345039;57;21034;-49
2022/12/24 05:47:36;;;;;;;13.30;6.95;;;8.10;80.50;;;;;;2347297;57;21475;-48
2022/12/24 05:50:04;;;;;;;13.05;6.82;;;8.10;80.40;;;;;;2347079;57;21010;-49
2022/12/24 05:55:08;;;;;;;18.85;8.63;;;8.10;80.40;;;;;;2335493;57;27873;-47
2022/12/24 05:57:36;;;;;;;14.20;6.35;;;7.90;82.30;;;;;;2346779;57;21040;-48
2022/12/24 06:00:05;;;;;;;16.00;7.78;;;8.00;81.90;;;;;;2347082;57;21116;-50
2022/12/24 06:02:32;;;;;;;12.88;6.87;;;8.10;81.10;;;;;;2348136;56;21109;-48
2022/12/24 06:04:59;;;;;;;14.85;6.72;;;8.10;80.60;;;;;;2374562;56;21117;-45
2022/12/24 06:07:26;;;;;;;14.50;8.25;;;8.10;80.30;;;;;;2372789;56;21075;-47
2022/12/24 06:09:53;;;;;;;13.20;7.03;;;8.10;80.10;;;;;;2372800;56;21551;-49
2022/12/24 06:12:20;;;;;;;11.48;6.37;;;8.10;81.00;;;;;;2374334;56;21051;-50
2022/12/24 06:14:47;;;;;;;16.05;6.60;;;8.10;80.10;;;;;;2628513;52;21735;-46
2022/12/24 06:17:15;;;;;;;12.90;6.20;;;8.10;80.30;;;;;;2375061;56;21035;-46
2022/12/24 06:19:42;;;;;;;15.25;5.82;;;8.10;80.10;;;;;;2372779;56;21598;-50
2022/12/24 06:22:09;;;;;;;13.27;6.60;;;8.10;80.10;;;;;;2373063;56;21102;-47
2022/12/24 06:24:36;;;;;;;10.73;6.47;;;8.00;80.00;;;;;;2373376;56;21043;-48
2022/12/24 06:27:03;;;;;;;12.27;5.95;;;8.00;80.90;;;;;;2374062;56;21534;-48
2022/12/24 06:29:30;;;;;;;12.32;5.97;;;8.00;80.10;;;;;;2373549;56;21047;-47
2022/12/24 06:31:57;;;;;;;13.18;5.87;;;8.00;80.30;;;;;;2374169;56;21047;-50
2022/12/24 06:34:24;;;;;;;11.32;6.28;;;7.90;80.20;;;;;;2374149;56;21046;-47
2022/12/24 06:36:52;;;;;;;11.38;5.53;;;7.90;80.30;;;;;;2373018;56;21035;-48
2022/12/24 06:39:19;;;;;;;13.60;6.68;;;7.90;80.30;;;;;;2373154;56;21047;-49
2022/12/24 06:41:46;;;;;;;12.50;5.95;;;7.90;80.30;;;;;;2373913;56;21511;-48
2022/12/24 06:44:13;;;;;;;8.05;4.95;;;7.90;80.30;;;;;;2372779;56;21098;-48
2022/12/24 06:46:40;;;;;;;10.05;5.00;;;7.90;80.30;;;;;;2374405;56;21138;-46
2022/12/24 06:49:07;;;;;;;11.43;4.80;;;7.80;80.40;;;;;;2374287;56;21102;-50
2022/12/24 06:51:34;;;;;;;8.85;4.80;;;7.80;80.40;;;;;;2372931;56;21038;-49
2022/12/24 06:54:01;;;;;;;9.75;4.82;;;7.80;80.40;;;;;;2373708;56;21558;-51
2022/12/24 06:56:29;;;;;;;9.68;4.37;;;7.70;80.50;;;;;;2374040;56;21117;-44
2022/12/24 06:58:56;;;;;;;9.27;4.60;;;7.80;80.60;;;;;;2627191;52;21621;-50
2022/12/24 07:01:23;;;;;;;7.95;4.60;;;7.80;80.70;;;;;;2373921;56;21055;-46
2022/12/24 07:03:50;;;;;;;10.35;5.20;;;7.80;80.60;;;;;;2373446;56;21114;-48
2022/12/24 07:06:20;;;;;;;8.50;4.50;;;7.80;80.60;;;;;;2373941;56;21778;-48
2022/12/24 07:08:47;;;;;;;7.15;4.37;;;7.80;80.70;;;;;;2373210;56;21507;-46
2022/12/24 07:11:15;;;;;;;7.57;3.78;;;7.80;80.60;;;;;;2373427;56;21131;-48
2022/12/24 07:13:42;;;;;;;8.13;4.82;;;7.80;80.60;;;;;;2372849;56;21031;-46
2022/12/24 07:16:09;;;;;;;8.73;5.15;;;7.80;80.70;;;;;;2373678;56;21043;-48
2022/12/24 07:18:37;;;;;;;8.50;4.43;;;7.70;80.70;;;;;;2373445;56;21436;-48
2022/12/24 07:21:05;;;;;;;7.15;4.20;;;7.80;80.80;;;;;;2373693;56;21530;-51
2022/12/24 07:23:33;;;;;;;7.18;4.15;;;7.80;80.60;;;;;;2372920;56;21114;-48
2022/12/24 07:26:01;;;;;;;8.05;4.62;;;7.80;80.60;;;;;;2373349;56;21872;-47
2022/12/24 07:28:29;;;;;;;10.07;4.90;;;7.80;80.70;;;;;;2374943;56;21027;-49
2022/12/24 07:30:57;;;;;;;10.93;4.57;;;7.80;80.70;;;;;;2374258;56;21015;-50
2022/12/24 07:33:25;;;;;;;8.98;4.93;;;7.80;80.70;;;;;;2374405;56;21169;-47
2022/12/24 07:35:59;;;;;;;10.48;4.57;;;7.80;80.60;;;;;;2374901;56;21502;-46
2022/12/24 07:38:26;;;;;;;8.57;5.07;;;7.80;80.70;;;;;;2374918;56;21071;-46
2022/12/24 07:40:54;;;;;;;9.93;4.75;;;7.70;80.60;;;;;;2372628;56;21050;-48
2022/12/24 07:43:21;;;;;;;9.27;4.53;;;7.80;80.60;;;;;;2373261;56;21043;-49
2022/12/24 07:45:48;;;;;;;9.13;5.35;;;7.80;80.70;;;;;;2373500;56;21165;-49
2022/12/24 07:48:15;;;;;;;9.13;4.45;;;7.80;80.80;;;;;;2370513;56;21031;-45
2022/12/24 07:50:43;;;;;;;9.63;5.18;;;7.80;80.90;;;;;;2372743;56;21074;-48
2022/12/24 07:53:10;;;;;;;7.62;4.50;;;7.80;80.80;;;;;;2372246;56;21043;-49
2022/12/24 07:55:37;;;;;;;8.80;4.80;;;7.80;80.80;;;;;;2372740;56;21051;-50
2022/12/24 07:58:04;;;;;;;8.38;4.53;;;7.80;80.70;;;;;;2372821;56;21071;-48
2022/12/24 08:00:31;;;;;;;6.97;4.80;;;7.80;80.80;;;;;;2371304;56;21078;-52
2022/12/24 08:02:59;;;;;;;10.35;5.07;;;7.80;80.70;;;;;;2372424;56;21551;-52
2022/12/24 08:05:26;;;;;;;9.55;4.80;;;7.80;80.70;;;;;;2372627;56;21059;-49
2022/12/24 08:07:54;;;;;;;8.30;4.62;;;7.80;80.80;;;;;;2372162;56;21422;-50
2022/12/24 08:10:21;;;;;;;9.10;5.65;;;7.90;80.80;;;;;;2372721;56;21097;-50
2022/12/24 08:12:49;;;;;;;9.25;5.50;;;7.90;80.70;;;;;;2372291;56;21535;-50
2022/12/24 08:15:16;;;;;;;8.45;4.78;;;7.90;80.70;;;;;;2373155;56;21102;-47
2022/12/24 08:17:43;;;;;;;8.10;4.95;;;7.90;80.70;;;;;;2371907;56;21134;-51
2022/12/24 08:20:11;;;;;;;9.45;5.62;;;7.90;80.70;;;;;;2371942;56;21083;-51
2022/12/24 08:22:38;;;;;;;11.35;5.35;;;7.90;80.70;;;;;;2374505;56;21022;-51
2022/12/24 08:25:08;;;;;;;8.98;5.12;;;7.90;80.70;;;;;;2373577;56;21209;-50
2022/12/24 08:27:35;;;;;;;9.10;5.12;;;7.90;80.70;;;;;;2372572;56;21051;-49
2022/12/24 08:30:03;;;;;;;8.63;5.25;;;7.90;80.60;;;;;;2372728;56;21027;-48
2022/12/24 08:32:30;;;;;;;8.75;5.60;;;7.90;80.60;;;;;;2372312;56;21114;-50
2022/12/24 08:34:57;;;;;;;9.45;4.97;;;7.90;80.60;;;;;;2372268;56;21366;-51
2022/12/24 08:37:24;;;;;;;8.10;5.15;;;7.90;80.70;;;;;;2372213;56;21059;-48
2022/12/24 08:39:51;;;;;;;11.20;5.75;;;8.00;80.90;;;;;;2372928;56;21213;-48
2022/12/24 08:42:19;;;;;;;13.45;6.18;;;8.00;80.90;;;;;;2371676;56;21039;-49
2022/12/24 08:44:46;;;;;;;11.73;6.28;;;8.00;80.90;;;;;;2371393;56;21051;-47
2022/12/24 08:47:13;;;;;;;10.77;6.50;;;8.00;80.80;;;;;;2372658;56;21114;-48
2022/12/24 08:49:40;;;;;;;10.68;5.87;;;8.00;80.80;;;;;;2369915;56;21042;-50
2022/12/24 08:52:07;;;;;;;9.02;5.95;;;8.10;80.70;;;;;;2371658;56;21023;-49
2022/12/24 08:54:34;;;;;;;9.77;6.07;;;8.10;81.20;;;;;;2370734;56;21050;-51
2022/12/24 08:57:02;;;;;;;10.32;6.00;;;8.10;80.70;;;;;;2623129;52;21027;-51
2022/12/24 08:59:29;;;;;;;8.85;6.25;;;8.10;80.70;;;;;;2369749;56;21550;-50
2022/12/24 09:01:56;;;;;;;11.80;6.75;;;8.10;80.80;;;;;;2372063;56;21027;-49
2022/12/24 09:04:23;;;;;;;14.65;7.05;;;8.20;80.80;;;;;;2372836;56;21055;-49
2022/12/24 09:06:50;;;;;;;9.27;6.07;;;8.20;80.70;;;;;;2372064;56;21054;-50
2022/12/24 09:09:17;;;;;;;10.45;6.15;;;8.20;80.60;;;;;;2372633;56;21598;-48
2022/12/24 09:11:45;;;;;;;12.25;7.15;;;8.20;80.60;;;;;;2372478;56;21194;-48
2022/12/24 09:14:12;;;;;;;11.98;6.60;;;8.20;80.60;;;;;;2372331;56;21365;-47
2022/12/24 09:16:39;;;;;;;10.52;6.50;;;8.20;80.70;;;;;;2371759;56;22662;-47
2022/12/24 09:19:06;;;;;;;11.85;7.25;;;8.20;80.60;;;;;;2372749;56;21174;-48
2022/12/24 09:21:34;;;;;;;11.30;6.43;;;8.20;80.50;;;;;;2372945;56;21162;-47
2022/12/24 09:24:04;;;;;;;10.10;6.25;;;8.20;80.50;;;;;;2625639;52;21194;-47
2022/12/24 09:26:32;;;;;;;15.48;7.25;;;8.20;80.70;;;;;;2372124;56;21541;-47
2022/12/24 09:29:00;;;;;;;12.80;7.37;;;8.20;80.70;;;;;;2372174;56;21130;-49
2022/12/24 09:31:27;;;;;;;10.20;6.45;;;8.30;80.60;;;;;;2370595;56;21051;-47
2022/12/24 09:33:55;;;;;;;10.00;5.78;;;8.30;80.70;;;;;;2372783;56;21047;-51
2022/12/24 09:36:22;;;;;;;9.48;6.60;;;8.30;80.70;;;;;;2373244;56;21122;-51
2022/12/24 09:38:49;;;;;;;11.25;7.00;;;8.30;80.60;;;;;;2372927;56;21063;-50
2022/12/24 09:41:29;;;;;;;12.20;6.95;;;8.30;80.60;;;;;;2373673;56;21130;-50
2022/12/24 09:44:02;;;;;;;10.95;7.25;;;8.40;80.60;;;;;;2373530;56;21519;-50
2022/12/24 09:46:34;;;;;;;11.63;6.95;;;8.40;80.30;;;;;;2372897;56;21090;-47
2022/12/24 09:49:05;;;;;;;11.50;6.82;;;8.40;80.30;;;;;;2372560;56;22131;-50
2022/12/24 09:51:38;;;;;;;11.82;7.18;;;8.40;80.30;;;;;;2373381;56;21074;-48
2022/12/24 09:54:14;;;;;;;13.00;7.45;;;8.40;80.20;;;;;;2373294;56;21047;-49
2022/12/24 09:56:44;;;;;;;9.90;6.82;;;8.40;80.10;;;;;;2373518;56;21740;-52
2022/12/24 09:59:16;;;;;;;19.12;8.18;;;8.40;80.10;;;;;;2373702;56;21114;-51
2022/12/24 10:01:43;;;;;;;10.95;7.20;;;8.40;80.00;;;;;;2374683;56;21437;-50
2022/12/24 10:04:13;;;;;;;18.20;6.78;;;8.40;80.00;;;;;;2374177;56;21773;-51
2022/12/24 10:06:48;;;;;;;13.43;7.65;;;8.40;80.20;;;;;;2374695;56;21519;-50
2022/12/24 10:09:21;;;;;;;9.73;6.55;;;8.40;80.30;;;;;;2373871;56;21117;-50
2022/12/24 10:11:53;;;;;;;10.35;6.40;;;8.40;80.30;;;;;;2373672;56;21046;-50
2022/12/24 10:14:32;;;;;;;11.90;7.47;;;8.40;80.30;;;;;;2373350;56;21114;-48
2022/12/24 10:17:17;;;;;;;10.35;6.97;;;8.50;80.40;;;;;;2626829;52;21028;-50
2022/12/24 10:19:51;;;;;;;12.68;8.20;;;8.50;80.40;;;;;;2373473;56;21094;-46
2022/12/24 10:22:25;;;;;;;13.82;7.75;;;8.50;80.10;;;;;;2373472;56;21522;-50
2022/12/24 10:25:03;;;;;;;15.00;7.90;;;8.60;80.00;;;;;;2373525;56;21039;-48
2022/12/24 10:27:36;;;;;;;15.13;8.23;;;8.60;80.10;;;;;;2374404;56;21047;-50
2022/12/24 10:30:12;;;;;;;9.88;6.85;;;8.60;80.00;;;;;;2373834;56;21506;-50
2022/12/24 10:32:41;;;;;;;11.43;7.75;;;8.60;80.00;;;;;;2373708;56;21126;-48
2022/12/24 10:35:22;;;;;;;13.60;8.45;;;8.60;80.10;;;;;;2373529;56;21626;-51
2022/12/24 10:37:51;;;;;;;13.20;7.90;;;8.60;80.10;;;;;;2373552;56;21599;-50
2022/12/24 10:40:30;;;;;;;13.02;8.35;;;8.60;80.00;;;;;;2372283;56;21077;-48
2022/12/24 10:42:57;;;;;;;13.32;8.02;;;8.60;79.80;;;;;;2373037;56;21531;-48
2022/12/24 10:45:30;;;;;;;12.80;8.13;;;8.60;79.70;;;;;;2373476;56;21591;-50
2022/12/24 10:48:02;;;;;;;15.43;8.57;;;8.70;79.80;;;;;;2374839;56;21590;-51
2022/12/24 10:50:34;;;;;;;13.13;8.57;;;8.70;79.90;;;;;;2375209;56;21023;-49
2022/12/24 10:53:11;;;;;;;14.80;8.68;;;8.70;80.00;;;;;;2374895;56;21007;-51
2022/12/24 10:55:38;;;;;;;14.25;8.68;;;8.70;80.00;;;;;;2374292;56;21018;-52
2022/12/24 10:58:12;;;;;;;11.45;6.95;;;8.80;80.00;;;;;;2373796;56;21551;-50
2022/12/24 11:00:41;;;;;;;10.63;6.78;;;8.80;80.00;;;;;;2373342;56;21039;-50
2022/12/24 11:03:23;;;;;;;14.70;8.48;;;8.80;80.00;;;;;;2373829;56;21055;-50
2022/12/24 11:06:05;;;;;;;15.60;8.90;;;8.90;79.90;;;;;;2373487;56;21590;-50
2022/12/24 11:08:33;;;;;;;13.73;8.52;;;8.90;79.50;;;;;;2372881;56;21039;-48
2022/12/24 11:11:03;;;;;;;14.45;9.55;;;8.90;79.50;;;;;;2371359;56;21630;-49
2022/12/24 11:13:32;;;;;;;17.77;10.25;;;8.80;79.30;;;;;;2372377;56;21113;-51
2022/12/24 11:16:04;;;;;;;15.73;9.73;;;8.90;79.20;;;;;;2372998;56;21119;-48
2022/12/24 11:18:33;;;;;;;14.02;8.68;;;8.90;79.10;;;;;;2627105;52;21095;-48
2022/12/24 11:21:02;;;;;;;15.20;9.02;;;8.90;79.30;;;;;;2373110;56;21117;-50
2022/12/24 11:23:30;;;;;;;15.23;9.13;;;8.80;79.20;;;;;;2372726;56;21674;-49
2022/12/24 11:25:58;;;;;;;14.45;9.40;;;8.90;79.30;;;;;;2372182;56;21694;-50
2022/12/24 11:28:27;;;;;;;14.30;8.73;;;8.90;79.40;;;;;;2371261;56;22120;-49
2022/12/24 11:31:00;;;;;;;15.50;9.07;;;9.00;79.50;;;;;;2372352;56;21582;-50
2022/12/24 11:33:27;;;;;;;;;;;9.00;79.40;;;;;;2376059;56;22798;-51
2022/12/24 11:36:01;;;;;;;14.87;8.27;;;9.10;79.40;;;;;;2373449;56;20081;-48
2022/12/24 11:38:30;;;;;;;14.00;8.50;;;9.10;78.70;;;;;;2373924;56;21098;-52
2022/12/24 11:41:01;;;;;;;12.98;7.82;;;9.10;78.90;;;;;;2373570;56;21023;-51
2022/12/24 11:43:43;;;;;;;12.65;8.30;;;9.10;79.10;;;;;;2373211;56;21027;-51
2022/12/24 11:49:22;;;;;;;12.88;8.82;;;9.10;79.20;;;;;;2354652;57;22010;-51
2022/12/24 11:52:18;;;;;;;14.87;9.20;;;9.20;79.10;;;;;;2345928;57;21691;-48
2022/12/24 11:55:07;;;;;;;14.52;9.00;;;9.20;79.30;;;;;;2625498;52;21133;-49
2022/12/24 11:57:44;;;;;;;12.37;7.80;;;9.20;79.30;;;;;;2373415;56;21086;-51
2022/12/24 12:00:13;;;;;;;15.10;9.15;;;9.20;79.30;;;;;;2371064;56;21717;-50
2022/12/24 12:02:45;;;;;;;14.00;7.90;;;9.20;79.10;;;;;;2374072;56;21059;-47
2022/12/24 12:05:18;;;;;;;14.25;8.20;;;9.20;78.90;;;;;;2375238;56;21165;-48
2022/12/24 12:10:24;;;;;;;14.80;9.32;;;9.20;79.00;;;;;;2334721;57;27831;-48
2022/12/24 12:12:58;;;;;;;13.50;8.00;;;9.00;80.70;;;;;;2350685;56;21063;-48
2022/12/24 12:15:32;;;;;;;13.93;8.55;;;9.30;80.20;;;;;;2373178;56;22072;-51
2022/12/24 12:18:06;;;;;;;10.55;6.95;;;9.30;79.40;;;;;;2373133;56;21054;-50
2022/12/24 12:20:39;;;;;;;13.82;8.35;;;9.40;79.10;;;;;;2373978;56;21511;-49
2022/12/24 12:23:14;;;;;;;14.20;8.70;;;9.40;78.90;;;;;;2373621;56;21083;-50
2022/12/24 12:25:47;;;;;;;12.57;7.65;;;9.50;78.80;;;;;;2375133;56;21391;-50
2022/12/24 12:28:20;;;;;;;14.35;8.50;;;9.40;78.50;;;;;;2374697;56;21133;-46
2022/12/24 12:33:30;;;;;;;19.33;12.52;;;9.50;78.50;;;;;;2344193;56;27969;-50
2022/12/24 12:36:00;;;;;;;16.23;9.77;;;9.40;79.50;;;;;;2372644;56;22201;-49
2022/12/24 12:38:28;;;;;;;15.75;9.93;;;9.50;79.00;;;;;;2374366;56;21054;-51
2022/12/24 12:41:09;;;;;;;13.70;8.38;;;9.50;78.20;;;;;;2371737;56;21633;-48
2022/12/24 12:46:32;;;;;;;14.95;10.43;;;9.60;77.60;;;;;;2329367;57;28075;-47
2022/12/24 12:49:09;;;;;;;14.95;9.73;;;9.40;79.50;;;;;;2344777;57;21062;-51
2022/12/24 12:51:44;;;;;;;17.20;9.57;;;9.60;79.00;;;;;;2343487;57;21089;-52
2022/12/24 12:54:40;;;;;;;16.50;8.95;;;9.60;78.30;;;;;;2343913;57;21620;-52
2022/12/24 12:57:12;;;;;;;14.43;8.63;;;9.60;78.30;;;;;;2343172;57;21713;-51
2022/12/24 12:59:44;;;;;;;14.30;9.10;;;9.70;78.20;;;;;;2343022;57;21043;-49
2022/12/24 13:05:45;;;;;;;15.20;9.20;;;9.70;78.20;;;;;;2323448;57;22177;-49
2022/12/24 13:11:30;;;;;;;15.43;8.93;;;9.70;78.00;;;;;;2532451;54;22162;-52
2022/12/24 13:14:22;;;;;;;15.20;8.43;;;9.70;78.00;;;;;;2286778;58;21633;-51
2022/12/24 13:17:37;;;;;;;17.35;10.40;;;9.70;78.10;;;;;;2293371;58;21072;-48
2022/12/24 13:20:19;;;;;;;15.88;9.57;;;9.80;78.40;;;;;;2314717;58;21072;-52
2022/12/24 13:22:53;;;;;;;17.75;10.63;;;9.80;78.10;;;;;;2317859;58;21183;-50
2022/12/24 13:25:25;;;;;;;14.23;9.55;;;9.80;78.10;;;;;;2317559;58;21036;-50
2022/12/24 13:27:52;;;;;;;17.48;10.20;;;9.70;78.10;;;;;;2317762;58;21597;-47
2022/12/24 13:30:39;;;;;;;16.50;9.93;;;9.70;78.10;;;;;;2317492;58;21615;-52
2022/12/24 13:33:10;;;;;;;17.83;10.77;;;9.70;78.10;;;;;;2316367;58;21134;-50
2022/12/24 13:35:58;;;;;;;18.95;10.65;;;9.70;78.20;;;;;;2315609;58;21073;-51
2022/12/24 13:38:42;;;;;;;15.10;8.93;;;9.70;78.20;;;;;;2315427;58;21115;-48
2022/12/24 13:41:38;;;;;;;18.15;10.60;;;9.80;78.50;;;;;;2315119;58;21128;-48
2022/12/24 13:44:17;;;;;;;20.40;11.77;;;9.80;78.40;;;;;;2314756;58;21837;-48